sensor_id;sensor_type;location;lat;lon;timestamp;P1;durP1;ratioP1;P2;durP2;ratioP2
17614;SDS011;8926;49.720;6.576;2022-09-17T00:02:16;1.13;;;0.80;;
17614;SDS011;8926;49.720;6.576;2022-09-17T00:04:41;0.80;;;0.70;;
17614;SDS011;8926;49.720;6.576;2022-09-17T00:07:07;0.70;;;0.70;;
17614;SDS011;8926;49.720;6.576;2022-09-17T00:09:32;0.60;;;0.50;;
17614;SDS011;8926;49.720;6.576;2022-09-17T00:11:57;0.50;;;0.50;;
17614;SDS011;8926;49.720;6.576;2022-09-17T00:14:23;0.80;;;0.60;;
17614;SDS011;8926;49.720;6.576;2022-09-17T00:16:48;0.70;;;0.70;;
17614;SDS011;8926;49.720;6.576;2022-09-17T00:19:22;0.70;;;0.60;;
17614;SDS011;8926;49.720;6.576;2022-09-17T00:21:49;1.10;;;0.80;;
17614;SDS011;8926;49.720;6.576;2022-09-17T00:24:15;1.20;;;0.80;;
17614;SDS011;8926;49.720;6.576;2022-09-17T00:26:42;1.03;;;0.83;;
17614;SDS011;8926;49.720;6.576;2022-09-17T00:29:08;1.33;;;0.70;;
17614;SDS011;8926;49.720;6.576;2022-09-17T00:31:34;0.60;;;0.60;;
17614;SDS011;8926;49.720;6.576;2022-09-17T00:34:00;0.60;;;0.60;;
17614;SDS011;8926;49.720;6.576;2022-09-17T00:36:27;1.03;;;0.83;;
17614;SDS011;8926;49.720;6.576;2022-09-17T00:38:54;0.57;;;0.57;;
17614;SDS011;8926;49.720;6.576;2022-09-17T00:41:21;0.60;;;0.50;;
17614;SDS011;8926;49.720;6.576;2022-09-17T00:43:51;0.50;;;0.50;;
17614;SDS011;8926;49.720;6.576;2022-09-17T00:46:23;1.43;;;0.83;;
17614;SDS011;8926;49.720;6.576;2022-09-17T00:48:55;1.27;;;1.17;;
17614;SDS011;8926;49.720;6.576;2022-09-17T00:51:29;3.27;;;0.87;;
17614;SDS011;8926;49.720;6.576;2022-09-17T00:54:00;1.13;;;1.03;;
17614;SDS011;8926;49.720;6.576;2022-09-17T00:56:28;2.47;;;1.30;;
17614;SDS011;8926;49.720;6.576;2022-09-17T00:58:56;1.53;;;1.10;;
17614;SDS011;8926;49.720;6.576;2022-09-17T01:01:22;1.67;;;1.00;;
17614;SDS011;8926;49.720;6.576;2022-09-17T01:03:47;1.10;;;0.90;;
17614;SDS011;8926;49.720;6.576;2022-09-17T01:09:09;2.83;;;1.40;;
17614;SDS011;8926;49.720;6.576;2022-09-17T01:17:26;1.50;;;1.10;;
17614;SDS011;8926;49.720;6.576;2022-09-17T01:20:07;1.20;;;0.90;;
17614;SDS011;8926;49.720;6.576;2022-09-17T01:22:42;1.37;;;1.27;;
17614;SDS011;8926;49.720;6.576;2022-09-17T01:25:40;1.10;;;1.00;;
17614;SDS011;8926;49.720;6.576;2022-09-17T01:28:21;1.60;;;1.50;;
17614;SDS011;8926;49.720;6.576;2022-09-17T01:33:44;1.40;;;1.30;;
17614;SDS011;8926;49.720;6.576;2022-09-17T01:42:14;1.60;;;1.47;;
17614;SDS011;8926;49.720;6.576;2022-09-17T01:49:52;1.30;;;0.80;;
17614;SDS011;8926;49.720;6.576;2022-09-17T01:52:24;0.90;;;0.90;;
17614;SDS011;8926;49.720;6.576;2022-09-17T01:54:54;0.70;;;0.70;;
17614;SDS011;8926;49.720;6.576;2022-09-17T01:57:26;0.60;;;0.57;;
17614;SDS011;8926;49.720;6.576;2022-09-17T02:02:45;1.10;;;0.73;;
17614;SDS011;8926;49.720;6.576;2022-09-17T02:05:23;0.70;;;0.70;;
17614;SDS011;8926;49.720;6.576;2022-09-17T02:08:17;0.83;;;0.80;;
17614;SDS011;8926;49.720;6.576;2022-09-17T02:10:59;0.60;;;0.60;;
17614;SDS011;8926;49.720;6.576;2022-09-17T02:13:42;2.03;;;1.40;;
17614;SDS011;8926;49.720;6.576;2022-09-17T02:16:14;1.17;;;0.93;;
17614;SDS011;8926;49.720;6.576;2022-09-17T02:18:48;0.90;;;0.90;;
17614;SDS011;8926;49.720;6.576;2022-09-17T02:27:06;1.27;;;0.83;;
17614;SDS011;8926;49.720;6.576;2022-09-17T02:29:38;0.80;;;0.80;;
17614;SDS011;8926;49.720;6.576;2022-09-17T02:32:07;1.00;;;0.90;;
17614;SDS011;8926;49.720;6.576;2022-09-17T02:34:33;3.43;;;1.20;;
17614;SDS011;8926;49.720;6.576;2022-09-17T02:36:59;2.20;;;1.40;;
17614;SDS011;8926;49.720;6.576;2022-09-17T02:39:25;1.37;;;1.00;;
17614;SDS011;8926;49.720;6.576;2022-09-17T02:41:57;2.10;;;1.07;;
17614;SDS011;8926;49.720;6.576;2022-09-17T02:44:36;2.43;;;1.40;;
17614;SDS011;8926;49.720;6.576;2022-09-17T02:47:21;2.10;;;1.10;;
17614;SDS011;8926;49.720;6.576;2022-09-17T02:55:30;1.90;;;0.83;;
17614;SDS011;8926;49.720;6.576;2022-09-17T03:00:38;0.90;;;0.90;;
17614;SDS011;8926;49.720;6.576;2022-09-17T03:03:06;2.63;;;1.10;;
17614;SDS011;8926;49.720;6.576;2022-09-17T03:05:36;1.10;;;0.77;;
17614;SDS011;8926;49.720;6.576;2022-09-17T03:08:03;1.27;;;1.13;;
17614;SDS011;8926;49.720;6.576;2022-09-17T03:10:33;1.17;;;0.93;;
17614;SDS011;8926;49.720;6.576;2022-09-17T03:12:58;1.27;;;1.17;;
17614;SDS011;8926;49.720;6.576;2022-09-17T03:15:24;1.70;;;1.30;;
17614;SDS011;8926;49.720;6.576;2022-09-17T03:17:49;1.30;;;1.20;;
17614;SDS011;8926;49.720;6.576;2022-09-17T03:20:14;1.60;;;1.20;;
17614;SDS011;8926;49.720;6.576;2022-09-17T03:22:40;2.87;;;1.00;;
17614;SDS011;8926;49.720;6.576;2022-09-17T03:25:05;0.90;;;0.90;;
17614;SDS011;8926;49.720;6.576;2022-09-17T03:27:31;1.70;;;1.07;;
17614;SDS011;8926;49.720;6.576;2022-09-17T03:29:56;2.30;;;1.10;;
17614;SDS011;8926;49.720;6.576;2022-09-17T03:32:22;1.53;;;0.90;;
17614;SDS011;8926;49.720;6.576;2022-09-17T03:34:47;2.60;;;1.27;;
17614;SDS011;8926;49.720;6.576;2022-09-17T03:37:12;1.77;;;1.10;;
17614;SDS011;8926;49.720;6.576;2022-09-17T03:39:38;1.40;;;1.30;;
17614;SDS011;8926;49.720;6.576;2022-09-17T03:42:03;1.87;;;1.13;;
17614;SDS011;8926;49.720;6.576;2022-09-17T03:44:29;1.70;;;1.37;;
17614;SDS011;8926;49.720;6.576;2022-09-17T03:46:54;1.93;;;1.30;;
17614;SDS011;8926;49.720;6.576;2022-09-17T03:49:19;2.63;;;1.30;;
17614;SDS011;8926;49.720;6.576;2022-09-17T03:51:44;1.13;;;1.03;;
17614;SDS011;8926;49.720;6.576;2022-09-17T03:54:10;1.63;;;1.30;;
17614;SDS011;8926;49.720;6.576;2022-09-17T03:56:35;1.63;;;1.37;;
17614;SDS011;8926;49.720;6.576;2022-09-17T03:59:01;1.50;;;1.40;;
17614;SDS011;8926;49.720;6.576;2022-09-17T04:01:26;2.13;;;1.57;;
17614;SDS011;8926;49.720;6.576;2022-09-17T04:03:52;1.80;;;1.50;;
17614;SDS011;8926;49.720;6.576;2022-09-17T04:06:18;1.10;;;1.00;;
17614;SDS011;8926;49.720;6.576;2022-09-17T04:08:43;1.43;;;1.00;;
17614;SDS011;8926;49.720;6.576;2022-09-17T04:11:08;1.10;;;1.00;;
17614;SDS011;8926;49.720;6.576;2022-09-17T04:13:34;1.03;;;0.70;;
17614;SDS011;8926;49.720;6.576;2022-09-17T04:15:59;0.83;;;0.70;;
17614;SDS011;8926;49.720;6.576;2022-09-17T04:18:25;0.87;;;0.70;;
17614;SDS011;8926;49.720;6.576;2022-09-17T04:20:50;1.03;;;0.83;;
17614;SDS011;8926;49.720;6.576;2022-09-17T04:23:15;0.80;;;0.80;;
17614;SDS011;8926;49.720;6.576;2022-09-17T04:25:41;0.80;;;0.80;;
17614;SDS011;8926;49.720;6.576;2022-09-17T04:28:07;0.63;;;0.63;;
17614;SDS011;8926;49.720;6.576;2022-09-17T04:30:32;0.50;;;0.50;;
17614;SDS011;8926;49.720;6.576;2022-09-17T04:32:57;0.60;;;0.60;;
17614;SDS011;8926;49.720;6.576;2022-09-17T04:35:23;0.53;;;0.53;;
17614;SDS011;8926;49.720;6.576;2022-09-17T04:37:52;0.43;;;0.43;;
17614;SDS011;8926;49.720;6.576;2022-09-17T04:40:18;0.77;;;0.60;;
17614;SDS011;8926;49.720;6.576;2022-09-17T04:42:43;0.60;;;0.60;;
17614;SDS011;8926;49.720;6.576;2022-09-17T04:45:09;1.90;;;1.27;;
17614;SDS011;8926;49.720;6.576;2022-09-17T04:47:36;0.90;;;0.90;;
17614;SDS011;8926;49.720;6.576;2022-09-17T04:50:03;1.03;;;0.77;;
17614;SDS011;8926;49.720;6.576;2022-09-17T04:52:28;0.70;;;0.60;;
17614;SDS011;8926;49.720;6.576;2022-09-17T04:54:53;0.73;;;0.73;;
17614;SDS011;8926;49.720;6.576;2022-09-17T04:57:19;1.07;;;0.90;;
17614;SDS011;8926;49.720;6.576;2022-09-17T04:59:44;1.00;;;0.80;;
17614;SDS011;8926;49.720;6.576;2022-09-17T05:02:09;0.70;;;0.70;;
17614;SDS011;8926;49.720;6.576;2022-09-17T05:04:35;1.67;;;0.97;;
17614;SDS011;8926;49.720;6.576;2022-09-17T05:07:00;1.10;;;1.00;;
17614;SDS011;8926;49.720;6.576;2022-09-17T05:09:26;2.00;;;0.90;;
17614;SDS011;8926;49.720;6.576;2022-09-17T05:11:52;0.77;;;0.77;;
17614;SDS011;8926;49.720;6.576;2022-09-17T05:14:17;0.80;;;0.80;;
17614;SDS011;8926;49.720;6.576;2022-09-17T05:16:42;0.80;;;0.80;;
17614;SDS011;8926;49.720;6.576;2022-09-17T05:19:07;3.23;;;1.70;;
17614;SDS011;8926;49.720;6.576;2022-09-17T05:21:33;3.80;;;2.40;;
17614;SDS011;8926;49.720;6.576;2022-09-17T05:23:58;2.27;;;1.87;;
17614;SDS011;8926;49.720;6.576;2022-09-17T05:26:25;1.57;;;1.47;;
17614;SDS011;8926;49.720;6.576;2022-09-17T05:28:50;1.20;;;1.10;;
17614;SDS011;8926;49.720;6.576;2022-09-17T05:31:15;1.13;;;1.03;;
17614;SDS011;8926;49.720;6.576;2022-09-17T05:33:41;1.03;;;0.93;;
17614;SDS011;8926;49.720;6.576;2022-09-17T05:36:06;1.00;;;0.80;;
17614;SDS011;8926;49.720;6.576;2022-09-17T05:38:32;1.00;;;0.90;;
17614;SDS011;8926;49.720;6.576;2022-09-17T05:40:57;0.83;;;0.80;;
17614;SDS011;8926;49.720;6.576;2022-09-17T05:43:22;1.00;;;0.80;;
17614;SDS011;8926;49.720;6.576;2022-09-17T05:45:48;0.70;;;0.70;;
17614;SDS011;8926;49.720;6.576;2022-09-17T05:48:13;0.87;;;0.70;;
17614;SDS011;8926;49.720;6.576;2022-09-17T05:50:39;1.90;;;0.70;;
17614;SDS011;8926;49.720;6.576;2022-09-17T05:53:14;0.70;;;0.70;;
17614;SDS011;8926;49.720;6.576;2022-09-17T05:55:39;0.77;;;0.70;;
17614;SDS011;8926;49.720;6.576;2022-09-17T05:58:09;1.07;;;0.90;;
17614;SDS011;8926;49.720;6.576;2022-09-17T06:00:44;0.87;;;0.87;;
17614;SDS011;8926;49.720;6.576;2022-09-17T06:03:11;1.63;;;1.00;;
17614;SDS011;8926;49.720;6.576;2022-09-17T06:05:38;0.70;;;0.70;;
17614;SDS011;8926;49.720;6.576;2022-09-17T06:08:04;0.90;;;0.90;;
17614;SDS011;8926;49.720;6.576;2022-09-17T06:10:30;1.93;;;1.07;;
17614;SDS011;8926;49.720;6.576;2022-09-17T06:12:56;0.93;;;0.90;;
17614;SDS011;8926;49.720;6.576;2022-09-17T06:15:22;1.03;;;0.90;;
17614;SDS011;8926;49.720;6.576;2022-09-17T06:17:49;1.10;;;1.10;;
17614;SDS011;8926;49.720;6.576;2022-09-17T06:20:14;1.40;;;1.30;;
17614;SDS011;8926;49.720;6.576;2022-09-17T06:22:40;2.03;;;1.20;;
17614;SDS011;8926;49.720;6.576;2022-09-17T06:25:06;2.30;;;1.43;;
17614;SDS011;8926;49.720;6.576;2022-09-17T06:27:32;3.53;;;1.00;;
17614;SDS011;8926;49.720;6.576;2022-09-17T06:29:58;1.63;;;1.20;;
17614;SDS011;8926;49.720;6.576;2022-09-17T06:32:24;1.37;;;0.90;;
17614;SDS011;8926;49.720;6.576;2022-09-17T06:34:49;0.80;;;0.80;;
17614;SDS011;8926;49.720;6.576;2022-09-17T06:37:14;1.27;;;1.00;;
17614;SDS011;8926;49.720;6.576;2022-09-17T06:39:40;2.60;;;1.30;;
17614;SDS011;8926;49.720;6.576;2022-09-17T06:42:05;1.37;;;1.07;;
17614;SDS011;8926;49.720;6.576;2022-09-17T06:44:30;2.00;;;1.40;;
17614;SDS011;8926;49.720;6.576;2022-09-17T06:46:56;2.73;;;1.37;;
17614;SDS011;8926;49.720;6.576;2022-09-17T06:49:22;2.67;;;1.50;;
17614;SDS011;8926;49.720;6.576;2022-09-17T06:51:48;3.33;;;1.43;;
17614;SDS011;8926;49.720;6.576;2022-09-17T06:54:14;2.20;;;1.50;;
17614;SDS011;8926;49.720;6.576;2022-09-17T06:56:39;2.90;;;1.43;;
17614;SDS011;8926;49.720;6.576;2022-09-17T06:59:04;2.70;;;1.50;;
17614;SDS011;8926;49.720;6.576;2022-09-17T07:01:30;1.40;;;1.30;;
17614;SDS011;8926;49.720;6.576;2022-09-17T07:03:55;1.97;;;1.10;;
17614;SDS011;8926;49.720;6.576;2022-09-17T07:06:20;1.70;;;1.30;;
17614;SDS011;8926;49.720;6.576;2022-09-17T07:08:45;4.20;;;1.50;;
17614;SDS011;8926;49.720;6.576;2022-09-17T07:11:11;1.50;;;1.27;;
17614;SDS011;8926;49.720;6.576;2022-09-17T07:13:37;1.50;;;1.00;;
17614;SDS011;8926;49.720;6.576;2022-09-17T07:16:03;1.40;;;1.30;;
17614;SDS011;8926;49.720;6.576;2022-09-17T07:18:30;4.20;;;1.30;;
17614;SDS011;8926;49.720;6.576;2022-09-17T07:20:56;1.43;;;1.10;;
17614;SDS011;8926;49.720;6.576;2022-09-17T07:23:24;1.20;;;1.10;;
17614;SDS011;8926;49.720;6.576;2022-09-17T07:25:54;1.73;;;1.17;;
17614;SDS011;8926;49.720;6.576;2022-09-17T07:28:21;2.60;;;0.80;;
17614;SDS011;8926;49.720;6.576;2022-09-17T07:30:47;2.77;;;1.47;;
17614;SDS011;8926;49.720;6.576;2022-09-17T07:33:14;4.70;;;1.60;;
17614;SDS011;8926;49.720;6.576;2022-09-17T07:35:41;1.30;;;0.70;;
17614;SDS011;8926;49.720;6.576;2022-09-17T07:38:06;1.10;;;0.77;;
17614;SDS011;8926;49.720;6.576;2022-09-17T07:40:32;1.20;;;1.10;;
17614;SDS011;8926;49.720;6.576;2022-09-17T07:42:57;1.57;;;0.97;;
17614;SDS011;8926;49.720;6.576;2022-09-17T07:45:22;1.53;;;0.70;;
17614;SDS011;8926;49.720;6.576;2022-09-17T07:47:48;1.43;;;0.97;;
17614;SDS011;8926;49.720;6.576;2022-09-17T07:50:14;0.60;;;0.60;;
17614;SDS011;8926;49.720;6.576;2022-09-17T07:52:44;1.03;;;0.77;;
17614;SDS011;8926;49.720;6.576;2022-09-17T07:55:13;1.80;;;1.40;;
17614;SDS011;8926;49.720;6.576;2022-09-17T07:57:39;1.33;;;0.90;;
17614;SDS011;8926;49.720;6.576;2022-09-17T08:00:04;0.73;;;0.63;;
17614;SDS011;8926;49.720;6.576;2022-09-17T08:02:31;1.13;;;0.60;;
17614;SDS011;8926;49.720;6.576;2022-09-17T08:04:56;1.10;;;0.90;;
17614;SDS011;8926;49.720;6.576;2022-09-17T08:07:21;1.27;;;0.87;;
17614;SDS011;8926;49.720;6.576;2022-09-17T08:09:47;1.30;;;0.77;;
17614;SDS011;8926;49.720;6.576;2022-09-17T08:12:12;0.80;;;0.70;;
17614;SDS011;8926;49.720;6.576;2022-09-17T08:14:37;1.03;;;0.70;;
17614;SDS011;8926;49.720;6.576;2022-09-17T08:17:05;0.60;;;0.60;;
17614;SDS011;8926;49.720;6.576;2022-09-17T08:19:32;1.00;;;0.63;;
17614;SDS011;8926;49.720;6.576;2022-09-17T08:21:57;1.17;;;0.60;;
17614;SDS011;8926;49.720;6.576;2022-09-17T08:24:22;2.53;;;1.03;;
17614;SDS011;8926;49.720;6.576;2022-09-17T08:26:48;1.90;;;0.90;;
17614;SDS011;8926;49.720;6.576;2022-09-17T08:29:13;1.00;;;0.80;;
17614;SDS011;8926;49.720;6.576;2022-09-17T08:31:38;2.13;;;0.80;;
17614;SDS011;8926;49.720;6.576;2022-09-17T08:34:10;1.40;;;0.80;;
17614;SDS011;8926;49.720;6.576;2022-09-17T08:36:35;1.73;;;0.80;;
17614;SDS011;8926;49.720;6.576;2022-09-17T08:39:01;1.47;;;0.80;;
17614;SDS011;8926;49.720;6.576;2022-09-17T08:41:40;1.10;;;0.70;;
17614;SDS011;8926;49.720;6.576;2022-09-17T08:44:42;1.60;;;0.80;;
17614;SDS011;8926;49.720;6.576;2022-09-17T08:50:00;0.90;;;0.70;;
17614;SDS011;8926;49.720;6.576;2022-09-17T09:01:13;1.23;;;1.13;;
17614;SDS011;8926;49.720;6.576;2022-09-17T09:06:50;1.50;;;0.80;;
17614;SDS011;8926;49.720;6.576;2022-09-17T09:09:20;1.10;;;1.10;;
17614;SDS011;8926;49.720;6.576;2022-09-17T09:11:49;1.47;;;1.33;;
17614;SDS011;8926;49.720;6.576;2022-09-17T09:14:26;2.00;;;1.57;;
17614;SDS011;8926;49.720;6.576;2022-09-17T09:16:55;2.50;;;1.70;;
17614;SDS011;8926;49.720;6.576;2022-09-17T09:19:22;3.17;;;2.30;;
17614;SDS011;8926;49.720;6.576;2022-09-17T09:22:01;1.70;;;1.00;;
17614;SDS011;8926;49.720;6.576;2022-09-17T09:24:54;1.03;;;0.90;;
17614;SDS011;8926;49.720;6.576;2022-09-17T09:27:32;3.07;;;2.20;;
17614;SDS011;8926;49.720;6.576;2022-09-17T09:30:09;1.33;;;1.17;;
17614;SDS011;8926;49.720;6.576;2022-09-17T09:32:57;2.63;;;1.43;;
17614;SDS011;8926;49.720;6.576;2022-09-17T09:35:28;1.97;;;1.50;;
17614;SDS011;8926;49.720;6.576;2022-09-17T09:37:56;1.27;;;0.80;;
17614;SDS011;8926;49.720;6.576;2022-09-17T09:43:11;1.97;;;1.17;;
17614;SDS011;8926;49.720;6.576;2022-09-17T09:45:49;2.53;;;1.57;;
17614;SDS011;8926;49.720;6.576;2022-09-17T09:56:36;2.37;;;1.30;;
17614;SDS011;8926;49.720;6.576;2022-09-17T09:59:12;3.47;;;1.40;;
17614;SDS011;8926;49.720;6.576;2022-09-17T10:01:40;2.33;;;1.10;;
17614;SDS011;8926;49.720;6.576;2022-09-17T10:06:50;1.73;;;1.20;;
17614;SDS011;8926;49.720;6.576;2022-09-17T10:09:17;1.47;;;0.93;;
17614;SDS011;8926;49.720;6.576;2022-09-17T10:12:02;1.57;;;1.00;;
17614;SDS011;8926;49.720;6.576;2022-09-17T10:14:35;1.83;;;1.10;;
17614;SDS011;8926;49.720;6.576;2022-09-17T10:17:13;1.13;;;1.00;;
17614;SDS011;8926;49.720;6.576;2022-09-17T10:20:08;1.30;;;1.10;;
17614;SDS011;8926;49.720;6.576;2022-09-17T10:22:41;1.50;;;1.23;;
17614;SDS011;8926;49.720;6.576;2022-09-17T10:27:54;3.50;;;1.20;;
17614;SDS011;8926;49.720;6.576;2022-09-17T10:30:22;2.30;;;1.13;;
17614;SDS011;8926;49.720;6.576;2022-09-17T10:35:41;2.23;;;1.10;;
17614;SDS011;8926;49.720;6.576;2022-09-17T10:38:38;2.50;;;1.10;;
17614;SDS011;8926;49.720;6.576;2022-09-17T10:41:10;1.63;;;1.00;;
17614;SDS011;8926;49.720;6.576;2022-09-17T10:43:43;1.30;;;1.00;;
17614;SDS011;8926;49.720;6.576;2022-09-17T10:46:28;1.53;;;1.00;;
17614;SDS011;8926;49.720;6.576;2022-09-17T10:49:10;1.13;;;0.87;;
17614;SDS011;8926;49.720;6.576;2022-09-17T10:51:49;1.70;;;1.17;;
17614;SDS011;8926;49.720;6.576;2022-09-17T10:54:19;1.23;;;0.70;;
17614;SDS011;8926;49.720;6.576;2022-09-17T10:56:59;1.83;;;0.80;;
17614;SDS011;8926;49.720;6.576;2022-09-17T10:59:44;1.93;;;1.10;;
17614;SDS011;8926;49.720;6.576;2022-09-17T11:02:28;1.30;;;0.63;;
17614;SDS011;8926;49.720;6.576;2022-09-17T11:10:30;0.87;;;0.70;;
17614;SDS011;8926;49.720;6.576;2022-09-17T11:26:28;0.60;;;0.53;;
17614;SDS011;8926;49.720;6.576;2022-09-17T11:29:07;1.17;;;0.70;;
17614;SDS011;8926;49.720;6.576;2022-09-17T11:31:49;0.60;;;0.60;;
17614;SDS011;8926;49.720;6.576;2022-09-17T11:39:55;0.80;;;0.63;;
17614;SDS011;8926;49.720;6.576;2022-09-17T11:42:23;0.60;;;0.60;;
17614;SDS011;8926;49.720;6.576;2022-09-17T11:45:00;0.60;;;0.60;;
17614;SDS011;8926;49.720;6.576;2022-09-17T11:47:34;1.10;;;0.70;;
17614;SDS011;8926;49.720;6.576;2022-09-17T11:53:18;0.93;;;0.60;;
17614;SDS011;8926;49.720;6.576;2022-09-17T11:55:51;2.00;;;0.87;;
17614;SDS011;8926;49.720;6.576;2022-09-17T12:00:48;0.80;;;0.60;;
17614;SDS011;8926;49.720;6.576;2022-09-17T12:05:57;0.83;;;0.57;;
17614;SDS011;8926;49.720;6.576;2022-09-17T12:11:20;0.50;;;0.50;;
17614;SDS011;8926;49.720;6.576;2022-09-17T12:16:49;1.27;;;0.67;;
17614;SDS011;8926;49.720;6.576;2022-09-17T12:19:36;0.97;;;0.70;;
17614;SDS011;8926;49.720;6.576;2022-09-17T12:22:25;1.60;;;0.97;;
17614;SDS011;8926;49.720;6.576;2022-09-17T12:24:55;0.70;;;0.60;;
17614;SDS011;8926;49.720;6.576;2022-09-17T12:27:38;1.00;;;0.83;;
17614;SDS011;8926;49.720;6.576;2022-09-17T12:30:15;0.60;;;0.60;;
17614;SDS011;8926;49.720;6.576;2022-09-17T12:35:49;0.90;;;0.80;;
17614;SDS011;8926;49.720;6.576;2022-09-17T12:40:54;0.80;;;0.60;;
17614;SDS011;8926;49.720;6.576;2022-09-17T12:43:42;0.73;;;0.53;;
17614;SDS011;8926;49.720;6.576;2022-09-17T13:01:09;1.03;;;0.57;;
17614;SDS011;8926;49.720;6.576;2022-09-17T13:03:42;1.00;;;0.63;;
17614;SDS011;8926;49.720;6.576;2022-09-17T13:06:16;0.97;;;0.40;;
17614;SDS011;8926;49.720;6.576;2022-09-17T13:14:09;0.87;;;0.70;;
17614;SDS011;8926;49.720;6.576;2022-09-17T13:16:59;1.07;;;0.70;;
17614;SDS011;8926;49.720;6.576;2022-09-17T13:22:07;0.50;;;0.50;;
17614;SDS011;8926;49.720;6.576;2022-09-17T13:24:40;0.70;;;0.40;;
17614;SDS011;8926;49.720;6.576;2022-09-17T13:27:06;1.17;;;0.63;;
17614;SDS011;8926;49.720;6.576;2022-09-17T13:35:10;0.60;;;0.60;;
17614;SDS011;8926;49.720;6.576;2022-09-17T13:37:42;0.63;;;0.63;;
17614;SDS011;8926;49.720;6.576;2022-09-17T13:40:24;0.77;;;0.53;;
17614;SDS011;8926;49.720;6.576;2022-09-17T13:42:53;2.00;;;1.13;;
17614;SDS011;8926;49.720;6.576;2022-09-17T13:45:21;0.60;;;0.60;;
17614;SDS011;8926;49.720;6.576;2022-09-17T13:50:25;0.63;;;0.63;;
17614;SDS011;8926;49.720;6.576;2022-09-17T13:55:43;0.50;;;0.50;;
17614;SDS011;8926;49.720;6.576;2022-09-17T14:05:52;2.43;;;1.10;;
17614;SDS011;8926;49.720;6.576;2022-09-17T14:13:50;0.50;;;0.50;;
17614;SDS011;8926;49.720;6.576;2022-09-17T14:19:19;0.23;;;0.23;;
17614;SDS011;8926;49.720;6.576;2022-09-17T14:27:10;0.87;;;0.70;;
17614;SDS011;8926;49.720;6.576;2022-09-17T14:32:35;0.70;;;0.70;;
17614;SDS011;8926;49.720;6.576;2022-09-17T14:35:15;0.30;;;0.30;;
17614;SDS011;8926;49.720;6.576;2022-09-17T14:37:44;0.37;;;0.20;;
17614;SDS011;8926;49.720;6.576;2022-09-17T14:40:16;0.40;;;0.40;;
17614;SDS011;8926;49.720;6.576;2022-09-17T14:42:43;0.40;;;0.40;;
17614;SDS011;8926;49.720;6.576;2022-09-17T14:45:19;0.50;;;0.50;;
17614;SDS011;8926;49.720;6.576;2022-09-17T14:50:50;0.40;;;0.40;;
17614;SDS011;8926;49.720;6.576;2022-09-17T14:53:16;0.37;;;0.30;;
17614;SDS011;8926;49.720;6.576;2022-09-17T14:55:47;0.43;;;0.43;;
17614;SDS011;8926;49.720;6.576;2022-09-17T14:58:28;0.80;;;0.80;;
17614;SDS011;8926;49.720;6.576;2022-09-17T15:00:57;1.10;;;0.90;;
17614;SDS011;8926;49.720;6.576;2022-09-17T15:03:23;2.50;;;0.50;;
17614;SDS011;8926;49.720;6.576;2022-09-17T15:05:48;0.30;;;0.30;;
17614;SDS011;8926;49.720;6.576;2022-09-17T15:08:18;0.43;;;0.43;;
17614;SDS011;8926;49.720;6.576;2022-09-17T15:13:31;0.30;;;0.23;;
17614;SDS011;8926;49.720;6.576;2022-09-17T15:16:22;0.37;;;0.20;;
17614;SDS011;8926;49.720;6.576;2022-09-17T15:19:08;0.30;;;0.30;;
17614;SDS011;8926;49.720;6.576;2022-09-17T15:26:55;0.80;;;0.47;;
17614;SDS011;8926;49.720;6.576;2022-09-17T15:29:24;0.10;;;0.10;;
17614;SDS011;8926;49.720;6.576;2022-09-17T15:31:53;0.63;;;0.30;;
17614;SDS011;8926;49.720;6.576;2022-09-17T15:34:18;0.30;;;0.30;;
17614;SDS011;8926;49.720;6.576;2022-09-17T15:37:01;0.57;;;0.37;;
17614;SDS011;8926;49.720;6.576;2022-09-17T15:39:36;0.20;;;0.20;;
17614;SDS011;8926;49.720;6.576;2022-09-17T15:42:04;0.50;;;0.33;;
17614;SDS011;8926;49.720;6.576;2022-09-17T15:44:29;0.20;;;0.20;;
17614;SDS011;8926;49.720;6.576;2022-09-17T15:47:17;0.77;;;0.20;;
17614;SDS011;8926;49.720;6.576;2022-09-17T15:50:14;0.30;;;0.30;;
17614;SDS011;8926;49.720;6.576;2022-09-17T15:52:43;0.30;;;0.30;;
17614;SDS011;8926;49.720;6.576;2022-09-17T15:55:28;0.90;;;0.23;;
17614;SDS011;8926;49.720;6.576;2022-09-17T16:08:43;0.47;;;0.30;;
17614;SDS011;8926;49.720;6.576;2022-09-17T16:11:17;0.20;;;0.20;;
17614;SDS011;8926;49.720;6.576;2022-09-17T16:13:46;0.50;;;0.40;;
17614;SDS011;8926;49.720;6.576;2022-09-17T16:16:14;0.40;;;0.30;;
17614;SDS011;8926;49.720;6.576;2022-09-17T16:18:40;0.57;;;0.57;;
17614;SDS011;8926;49.720;6.576;2022-09-17T16:21:07;1.13;;;0.63;;
17614;SDS011;8926;49.720;6.576;2022-09-17T16:23:34;1.07;;;1.00;;
17614;SDS011;8926;49.720;6.576;2022-09-17T16:26:00;0.70;;;0.67;;
17614;SDS011;8926;49.720;6.576;2022-09-17T16:28:25;1.50;;;0.60;;
17614;SDS011;8926;49.720;6.576;2022-09-17T16:30:50;0.90;;;0.90;;
17614;SDS011;8926;49.720;6.576;2022-09-17T16:33:16;0.83;;;0.67;;
17614;SDS011;8926;49.720;6.576;2022-09-17T16:35:43;1.07;;;0.60;;
17614;SDS011;8926;49.720;6.576;2022-09-17T16:38:08;0.97;;;0.60;;
17614;SDS011;8926;49.720;6.576;2022-09-17T16:40:38;0.80;;;0.60;;
17614;SDS011;8926;49.720;6.576;2022-09-17T16:43:05;1.17;;;0.87;;
17614;SDS011;8926;49.720;6.576;2022-09-17T16:45:30;1.90;;;1.47;;
17614;SDS011;8926;49.720;6.576;2022-09-17T16:47:56;1.60;;;1.40;;
17614;SDS011;8926;49.720;6.576;2022-09-17T16:50:22;2.07;;;1.87;;
17614;SDS011;8926;49.720;6.576;2022-09-17T16:52:47;5.13;;;3.83;;
17614;SDS011;8926;49.720;6.576;2022-09-17T16:55:14;2.20;;;1.40;;
17614;SDS011;8926;49.720;6.576;2022-09-17T16:57:40;1.30;;;0.80;;
17614;SDS011;8926;49.720;6.576;2022-09-17T17:00:06;1.20;;;0.93;;
17614;SDS011;8926;49.720;6.576;2022-09-17T17:02:36;1.37;;;1.20;;
17614;SDS011;8926;49.720;6.576;2022-09-17T17:05:02;2.20;;;0.93;;
17614;SDS011;8926;49.720;6.576;2022-09-17T17:07:27;1.50;;;1.00;;
17614;SDS011;8926;49.720;6.576;2022-09-17T17:09:52;1.53;;;0.83;;
17614;SDS011;8926;49.720;6.576;2022-09-17T17:12:18;2.57;;;1.40;;
17614;SDS011;8926;49.720;6.576;2022-09-17T17:14:43;2.87;;;1.37;;
17614;SDS011;8926;49.720;6.576;2022-09-17T17:17:13;1.40;;;1.03;;
17614;SDS011;8926;49.720;6.576;2022-09-17T17:19:39;0.83;;;0.70;;
17614;SDS011;8926;49.720;6.576;2022-09-17T17:22:05;2.50;;;1.10;;
17614;SDS011;8926;49.720;6.576;2022-09-17T17:24:32;1.00;;;0.90;;
17614;SDS011;8926;49.720;6.576;2022-09-17T17:26:57;1.20;;;0.80;;
17614;SDS011;8926;49.720;6.576;2022-09-17T17:29:23;2.27;;;0.80;;
17614;SDS011;8926;49.720;6.576;2022-09-17T17:31:48;0.70;;;0.63;;
17614;SDS011;8926;49.720;6.576;2022-09-17T17:34:13;1.47;;;0.80;;
17614;SDS011;8926;49.720;6.576;2022-09-17T17:36:39;1.87;;;0.90;;
17614;SDS011;8926;49.720;6.576;2022-09-17T17:39:04;1.13;;;0.90;;
17614;SDS011;8926;49.720;6.576;2022-09-17T17:41:29;2.33;;;1.17;;
17614;SDS011;8926;49.720;6.576;2022-09-17T17:43:55;1.43;;;0.90;;
17614;SDS011;8926;49.720;6.576;2022-09-17T17:46:21;2.13;;;1.33;;
17614;SDS011;8926;49.720;6.576;2022-09-17T17:48:48;2.07;;;1.30;;
17614;SDS011;8926;49.720;6.576;2022-09-17T17:51:13;1.80;;;1.03;;
17614;SDS011;8926;49.720;6.576;2022-09-17T17:53:42;3.30;;;1.07;;
17614;SDS011;8926;49.720;6.576;2022-09-17T17:56:08;3.57;;;1.60;;
17614;SDS011;8926;49.720;6.576;2022-09-17T17:58:34;1.50;;;1.10;;
17614;SDS011;8926;49.720;6.576;2022-09-17T18:01:07;1.83;;;0.87;;
17614;SDS011;8926;49.720;6.576;2022-09-17T18:03:36;0.93;;;0.80;;
17614;SDS011;8926;49.720;6.576;2022-09-17T18:06:03;1.20;;;0.90;;
17614;SDS011;8926;49.720;6.576;2022-09-17T18:08:29;1.73;;;0.90;;
17614;SDS011;8926;49.720;6.576;2022-09-17T18:10:55;1.73;;;0.90;;
17614;SDS011;8926;49.720;6.576;2022-09-17T18:13:24;3.07;;;2.87;;
17614;SDS011;8926;49.720;6.576;2022-09-17T18:15:53;2.33;;;1.97;;
17614;SDS011;8926;49.720;6.576;2022-09-17T18:18:23;1.47;;;1.10;;
17614;SDS011;8926;49.720;6.576;2022-09-17T18:20:53;2.00;;;1.00;;
17614;SDS011;8926;49.720;6.576;2022-09-17T18:23:28;3.03;;;1.30;;
17614;SDS011;8926;49.720;6.576;2022-09-17T18:25:54;3.03;;;2.10;;
17614;SDS011;8926;49.720;6.576;2022-09-17T18:28:20;3.90;;;3.50;;
17614;SDS011;8926;49.720;6.576;2022-09-17T18:30:46;3.30;;;2.63;;
17614;SDS011;8926;49.720;6.576;2022-09-17T18:33:15;2.40;;;2.20;;